AirNav   Pilot Hours Calculator
 
 977 users online  

MU48 Sunburst Ranch Airport
Gainesville, Missouri, USA

GOING TO GAINESVILLE?


FAA INFORMATION EFFECTIVE 03 NOVEMBER 2022

Location

FAA Identifier: MU48
Lat/Long: 36-38-54.2210N 092-13-13.5670W
36-38.903683N 092-13.226117W
36.6483947,-92.2204353
(estimated)
Elevation: 820 ft. / 250 m (estimated)
Variation: 04E (1985)
From city: 10 miles NE of GAINESVILLE, MO
Time zone: UTC -6 (UTC -5 during Daylight Saving Time)
Zip code: 65626

Airport Operations

Airport use: Private use. Permission required prior to landing
Activation date: 11/1975
Control tower: no
ARTCC: MEMPHIS CENTER
FSS: COLUMBIA FLIGHT SERVICE STATION
Attendance: JUN-NOV DAYLIGHT HOURS
Wind indicator: yes
Segmented circle: no

Nearby radio navigation aids

VOR radial/distance  VOR name  Freq  Var
DGDr125/38.7DOGWOOD VORTAC109.4001E

Airport Services

Parking: hangars and tiedowns

Runway Information

Runway 9/27

Dimensions: 3800 x 150 ft. / 1158 x 46 m
Surface: turf, in good condition
RUNWAY 9  RUNWAY 27
Traffic pattern: leftleft
Displaced threshold: no800 ft.
Obstructions: none50 ft. trees, 50 ft. from runway, 20:1 slope to clear

Airport Ownership and Management from official FAA records

Ownership: Privately-owned
Owner: ALBERT S. ECKILSON
ROUTE B BOX 25
CAULFIELD, MO 65626
Manager: LARRY LINDEMANN
STAR RT
CAULFIELD, MO 65626
Phone 417-284-3443

Airport Operational Statistics

Aircraft operations: 20/year
60% transient general aviation
40% local general aviation

Additional Remarks

FOR CD CTC MEMPHIS ARTCC AT 901-368-8453/8449.

Instrument Procedures

There are no published instrument procedures at MU48.

Some nearby airports with instrument procedures:

KUNO - West Plains Regional Airport (21 nm NE)
KBPK - Baxter County Airport (21 nm SW)
KFLP - Marion County Regional Airport (28 nm SW)
1MO - Mountain Grove Memorial Airport (29 nm N)
KAOV - Ava Bill Martin Memorial Airport (29 nm NW)
 
Loc | Ops | Rwys | IFR | FBO | Links
Com | Nav | Svcs | Stats | Notes

Branson Jet Center
AirBoss

 
Area around MU48 (Sunburst Ranch Airport)
 
Road maps at: MapQuest Bing Google
 
Aerial photo
No photo
 
Sectional chart

 
Airport distance calculator
Flying to Sunburst Ranch Airport? Find the distance to fly.

From to MU48

Sunrise and sunset
Times for 29-Nov-2022
 Local
(UTC-6)
 Zulu
(UTC)
Morning civil twilight06:3312:33
Sunrise07:0213:02
Sunset16:5322:53
Evening civil twilight17:2123:21

Current date and time
Zulu (UTC)  30-Nov-2022 02:07:06
Local (UTC-6)  29-Nov-2022 20:07:06
 
METAR
KBPK 
21nm SW 
300153Z AUTO 35007G23KT 10SM CLR 10/03 A2979 RMK AO2 SLP086 T01000033
KUNO 
21nm NE 
300153Z AUTO 32016G27KT 10SM CLR 11/04 A2977 RMK AO2 PK WND 32027/0143 SLP078 T01060044
KFLP 
25nm SW 
300156Z AUTO 31018G24KT 10SM CLR 10/03 A2984 RMK AO2 PK WND 33031/0058 PRESRR SLP102 T01000033
TAF
KBPK 
21nm SW 
291736Z 2918/3018 21015G25KT P6SM SCT015 BKN035 FM300000 30012G20KT P6SM BKN050 FM300800 30013KT P6SM SCT250 FM301500 31011KT P6SM SKC
NOTAMs
Click for the latest NOTAMs
NOTAMs are issued by the DoD/FAA and will open in a separate window not controlled by AirNav.

 

 
 

Would you like to see your business listed on this page?

 If your business provides an interesting product or service to pilots, flight crews, aircraft, or users of the Sunburst Ranch Airport, you should consider listing it here.  To start the listing process, click on the button below
 
Add a business
 

Other Pages about Sunburst Ranch Airport

www.sunburstranchcanoe.com/SBairstrip.htm
 
Update a link
 
Copyright © AirNav, LLC. All rights reserved. Privacy Policy  Contact